createdAt,value
2019-02-15T06:44:10.705Z,1028.95
2019-02-15T06:44:43.646Z,1028.90
2019-02-15T06:45:43.618Z,1028.88
2019-02-15T06:46:43.606Z,1028.95
2019-02-15T06:47:43.647Z,1028.98
2019-02-15T06:48:43.583Z,1028.90
2019-02-15T06:49:43.570Z,1028.94
2019-02-15T06:50:43.560Z,1028.95
2019-02-15T06:51:43.552Z,1028.94
2019-02-15T06:52:43.563Z,1028.91
2019-02-15T06:53:43.537Z,1028.90
2019-02-15T06:54:43.520Z,1028.96
2019-02-15T06:55:43.515Z,1028.99
2019-02-15T06:56:43.535Z,1028.91
2019-02-15T06:57:43.507Z,1028.95
2019-02-15T06:58:45.617Z,1028.98
2019-02-15T06:59:43.470Z,1029.02
2019-02-15T07:05:36.819Z,1029.02
2019-02-15T07:06:36.780Z,1028.95
2019-02-15T07:07:36.834Z,1029.02
2019-02-15T07:08:36.761Z,1028.99
2019-02-15T07:09:36.753Z,1029.05
2019-02-15T07:10:36.737Z,1029.02
2019-02-15T07:11:36.726Z,1029.00
2019-02-15T07:12:36.742Z,1029.01
2019-02-15T07:13:36.709Z,1028.92
2019-02-15T07:14:36.697Z,1029.03
2019-02-15T07:15:36.690Z,1028.98
2019-02-15T07:16:36.672Z,1028.97
2019-02-15T07:17:36.666Z,1029.05
2019-02-15T07:18:36.674Z,1029.06
2019-02-15T07:19:36.641Z,1029.04
2019-02-15T07:20:36.677Z,1029.08
2019-02-15T07:21:36.631Z,1029.11
2019-02-15T07:22:36.637Z,1029.11
2019-02-15T07:23:36.597Z,1029.16
2019-02-15T07:24:36.587Z,1029.07
2019-02-15T07:25:36.575Z,1029.10
2019-02-15T07:26:36.564Z,1029.15
2019-02-15T07:27:36.573Z,1029.18
2019-02-15T07:28:36.543Z,1029.12
2019-02-15T07:29:36.534Z,1029.12
2019-02-15T07:30:36.531Z,1029.14
2019-02-15T07:31:36.553Z,1029.18
2019-02-15T07:32:36.526Z,1029.13
2019-02-15T07:33:36.515Z,1029.16
2019-02-15T07:34:36.491Z,1029.20
2019-02-15T07:35:36.501Z,1029.17
2019-02-15T07:36:36.460Z,1029.13
2019-02-15T07:37:36.455Z,1029.20
2019-02-15T07:38:36.458Z,1029.14
2019-02-15T07:39:36.426Z,1029.23
2019-02-15T07:40:36.439Z,1029.12
2019-02-15T07:41:36.413Z,1029.14
2019-02-15T07:42:36.393Z,1029.16
2019-02-15T07:43:36.409Z,1029.14
2019-02-15T07:44:36.406Z,1029.17
2019-02-15T07:58:59.099Z,1029.09
2019-02-15T08:00:00.540Z,1029.09
2019-02-15T08:00:59.111Z,1029.09
2019-02-15T08:02:01.868Z,1029.05
2019-02-15T08:02:59.068Z,1029.02
2019-02-15T11:16:58.250Z,1027.58
2019-02-15T11:17:31.223Z,1027.57
2019-02-15T11:18:31.206Z,1027.55
2019-02-15T14:55:45.733Z,1024.47
2019-02-15T14:56:39.745Z,1024.45
2019-02-15T14:57:39.774Z,1024.48
2019-02-15T14:58:40.252Z,1024.45
2019-02-15T14:59:39.628Z,1024.41
2019-02-15T15:00:39.618Z,1024.34
2019-02-15T15:01:39.614Z,1024.40
2019-02-15T15:02:39.617Z,1024.34
2019-02-15T15:03:39.611Z,1024.39
2019-02-15T15:04:41.365Z,1024.35
2019-02-15T15:05:39.570Z,1024.43
2019-02-15T15:06:41.322Z,1024.35
2019-02-15T15:07:39.544Z,1024.34
2019-02-15T15:08:39.552Z,1024.37
2019-02-15T15:09:39.534Z,1024.28
2019-02-15T15:10:39.514Z,1024.28
2019-02-15T15:11:39.518Z,1024.30
2019-02-15T15:12:39.516Z,1024.35
2019-02-15T15:13:39.477Z,1024.28
2019-02-15T15:14:39.468Z,1024.25
2019-02-15T15:15:39.461Z,1024.26
2019-02-15T15:16:39.444Z,1024.23
2019-02-15T15:17:39.462Z,1024.21
2019-02-15T15:18:39.420Z,1024.22
2019-02-15T15:19:39.408Z,1024.23
2019-02-15T15:20:39.395Z,1024.18
2019-02-15T15:21:39.385Z,1024.23
2019-02-15T15:22:39.374Z,1024.14
2019-02-15T15:23:39.384Z,1024.14
2019-02-15T15:24:39.395Z,1024.15
2019-02-15T15:25:39.339Z,1024.14
2019-02-15T15:26:39.326Z,1024.13
2019-02-15T15:27:39.329Z,1024.15
2019-02-15T15:28:39.339Z,1024.14
2019-02-15T15:29:39.301Z,1024.13
2019-02-15T15:30:39.286Z,1024.16
2019-02-15T15:31:39.277Z,1024.07
2019-02-15T15:32:39.263Z,1024.12
2019-02-15T15:33:39.274Z,1024.14
2019-02-15T15:34:39.243Z,1024.08
2019-02-15T15:35:39.232Z,1023.99
2019-02-15T15:36:39.223Z,1024.01
2019-02-15T15:37:39.217Z,1024.06
2019-02-15T15:38:39.224Z,1024.03
2019-02-15T15:39:39.191Z,1024.03
2019-02-15T15:40:39.178Z,1023.98
2019-02-15T15:41:39.605Z,1024.05
2019-02-15T15:42:39.175Z,1023.97
2019-02-15T15:43:39.365Z,1023.95
2019-02-15T15:44:39.130Z,1023.93
2019-02-15T15:45:39.130Z,1024.00
2019-02-15T15:46:39.116Z,1024.00
2019-02-15T15:53:29.478Z,1023.93
2019-02-15T15:54:02.450Z,1024.00
2019-02-15T15:55:02.436Z,1023.89
2019-02-15T15:56:02.466Z,1023.85
2019-02-15T15:57:02.420Z,1023.91
2019-02-15T15:58:02.422Z,1023.96
2019-02-15T15:59:02.449Z,1023.92
2019-02-15T16:00:02.536Z,1023.92
2019-02-15T16:01:02.382Z,1023.93
2019-02-15T16:02:02.425Z,1023.89
2019-02-15T16:03:02.448Z,1023.86
2019-02-15T16:04:02.380Z,1023.88
2019-02-15T16:05:02.336Z,1023.86
2019-02-15T16:06:02.320Z,1023.81
2019-02-15T16:07:02.318Z,1023.86
2019-02-15T16:08:02.589Z,1023.85
2019-02-15T16:09:03.151Z,1023.91
2019-02-15T16:10:02.274Z,1023.90
2019-02-15T16:11:02.261Z,1023.83
2019-02-15T16:12:02.253Z,1023.83
2019-02-15T16:13:02.264Z,1023.85
2019-02-15T16:14:02.229Z,1023.79
2019-02-15T16:15:02.256Z,1023.78
2019-02-15T16:16:02.258Z,1023.84
2019-02-15T16:17:02.267Z,1023.80
2019-02-15T16:18:02.254Z,1023.78
2019-02-15T16:19:02.269Z,1023.75
2019-02-15T16:20:02.223Z,1023.84
2019-02-15T16:21:02.150Z,1023.76
2019-02-15T16:22:02.137Z,1023.81
2019-02-15T16:23:02.156Z,1023.79
2019-02-15T16:24:02.116Z,1023.82
2019-02-15T16:25:02.144Z,1023.78
2019-02-15T16:26:02.098Z,1023.84
2019-02-15T16:27:02.090Z,1023.84
2019-02-15T16:28:02.069Z,1023.77
2019-02-15T16:29:02.058Z,1023.79
2019-02-15T16:30:02.055Z,1023.78
2019-02-15T16:31:02.056Z,1023.80
2019-02-15T16:32:02.274Z,1023.84
2019-02-15T18:34:33.602Z,1023.85
2019-02-15T18:35:06.587Z,1023.80
2019-02-15T18:36:06.559Z,1023.86
2019-02-15T18:37:06.553Z,1023.81
2019-02-15T18:38:06.535Z,1023.83
2019-02-15T18:39:06.557Z,1023.73
2019-02-15T18:40:06.518Z,1023.73
2019-02-15T18:41:13.321Z,1023.76
2019-02-15T18:42:07.496Z,1023.81
2019-02-15T18:43:06.483Z,1023.79
2019-02-15T18:44:06.491Z,1023.73
2019-02-15T18:45:06.458Z,1023.80
2019-02-15T18:46:06.452Z,1023.78
2019-02-15T18:47:06.441Z,1023.72
2019-02-15T18:48:06.428Z,1023.79
2019-02-15T18:49:06.456Z,1023.83
2019-02-15T18:50:06.420Z,1023.77
2019-02-15T18:51:06.395Z,1023.78
2019-02-15T18:52:06.383Z,1023.78
2019-02-15T18:53:06.379Z,1023.80
2019-02-15T18:54:06.366Z,1023.76
2019-02-15T18:55:06.384Z,1023.81
2019-02-15T18:56:06.337Z,1023.73
2019-02-15T18:57:06.330Z,1023.72
2019-02-15T18:58:06.320Z,1023.78
2019-02-15T18:59:06.309Z,1023.69
2019-02-15T19:00:06.298Z,1023.66
2019-02-15T19:01:06.308Z,1023.67
2019-02-15T19:02:06.301Z,1023.70
2019-02-15T19:03:06.265Z,1023.68
2019-02-15T19:04:06.251Z,1023.70
2019-02-15T19:05:06.239Z,1023.63
2019-02-15T19:06:06.251Z,1023.65
2019-02-15T19:07:06.219Z,1023.63
2019-02-15T19:08:06.206Z,1023.63
2019-02-15T19:09:06.199Z,1023.69
2019-02-15T19:10:06.210Z,1023.76
2019-02-15T19:11:06.200Z,1023.63
2019-02-15T19:12:06.163Z,1023.66
2019-02-15T19:13:06.151Z,1023.62
2019-02-15T19:14:06.153Z,1023.68
2019-02-15T19:15:06.136Z,1023.67
2019-02-15T19:16:06.152Z,1023.65
2019-02-15T19:17:06.219Z,1023.65
2019-02-15T19:18:06.104Z,1023.63
2019-02-15T19:19:06.090Z,1023.59
2019-02-15T19:20:06.081Z,1023.56
2019-02-15T19:21:06.068Z,1023.61
2019-02-15T19:22:06.448Z,1023.63
2019-02-15T19:23:06.047Z,1023.68
2019-02-15T19:24:06.077Z,1023.67
2019-02-15T19:33:19.607Z,1023.66
2019-02-15T19:34:19.478Z,1023.71
2019-02-15T19:35:19.473Z,1023.67
2019-02-15T19:36:19.455Z,1023.63
2019-02-15T19:37:19.439Z,1023.64
2019-02-15T19:38:19.483Z,1023.68
2019-02-15T19:39:19.423Z,1023.68
2019-02-15T19:40:19.412Z,1023.55
2019-02-15T19:41:19.459Z,1023.61
2019-02-15T19:42:19.436Z,1023.66
2019-02-15T19:43:19.411Z,1023.63
2019-02-15T19:44:19.367Z,1023.62
2019-02-15T19:45:19.355Z,1023.64
2019-02-15T19:46:19.347Z,1023.66
2019-02-15T19:47:19.335Z,1023.61
2019-02-15T19:48:19.327Z,1023.57
2019-02-15T19:49:19.340Z,1023.54
2019-02-15T19:50:19.307Z,1023.56
2019-02-15T19:51:19.291Z,1023.52
2019-02-15T19:52:19.283Z,1023.52
2019-02-15T19:53:19.326Z,1023.52
2019-02-15T19:54:19.262Z,1023.53
2019-02-15T19:55:19.280Z,1023.44
2019-02-15T19:56:19.233Z,1023.46
2019-02-15T19:57:19.365Z,1023.50
2019-02-15T19:58:19.222Z,1023.43
2019-02-15T19:59:19.230Z,1023.47
